createdAt,value
2023-05-17T05:00:51.300Z,1011.61
2023-05-17T05:01:51.086Z,1011.58
2023-05-17T05:02:51.162Z,1011.63
2023-05-17T05:03:51.084Z,1011.63
2023-05-17T05:04:51.084Z,1011.60
2023-05-17T05:05:51.049Z,1011.68
2023-05-17T05:06:51.041Z,1011.68
2023-05-17T05:07:51.047Z,1011.72
2023-05-17T05:08:51.007Z,1011.72
2023-05-17T05:09:51.000Z,1011.73
2023-05-17T05:10:51.096Z,1011.76
2023-05-17T05:11:55.998Z,1011.70
2023-05-17T05:12:50.957Z,1011.74
2023-05-17T05:13:50.949Z,1011.70
2023-05-17T05:14:50.934Z,1011.76
2023-05-17T05:15:50.944Z,1011.80
2023-05-17T05:16:51.094Z,1011.85
2023-05-17T05:17:50.985Z,1011.83
2023-05-17T05:18:51.086Z,1011.86
2023-05-17T05:19:50.918Z,1011.90
2023-05-17T05:20:50.873Z,1011.94
2023-05-17T05:21:50.895Z,1011.92
2023-05-17T05:22:55.863Z,1011.91
2023-05-17T05:23:50.831Z,1011.96
2023-05-17T05:24:50.822Z,1011.94
2023-05-17T05:25:50.832Z,1012.02
2023-05-17T05:26:50.805Z,1012.05
2023-05-17T05:27:50.844Z,1012.00
2023-05-17T05:28:50.803Z,1011.99
2023-05-17T05:29:50.764Z,1011.98
2023-05-17T05:30:50.764Z,1012.03
2023-05-17T05:31:50.744Z,1011.94
2023-05-17T05:32:51.063Z,1011.97
2023-05-17T05:33:55.929Z,1012.02
2023-05-17T05:34:50.724Z,1012.11
2023-05-17T05:35:50.708Z,1012.07
2023-05-17T05:36:50.686Z,1012.06
2023-05-17T05:37:50.674Z,1012.04
2023-05-17T05:38:50.667Z,1012.08
2023-05-17T05:39:50.701Z,1012.04
2023-05-17T05:40:50.641Z,1012.01
2023-05-17T05:41:50.637Z,1012.07
2023-05-17T05:42:50.647Z,1012.05
2023-05-17T05:43:50.609Z,1012.05
2023-05-17T05:44:55.630Z,1012.04
2023-05-17T05:45:50.627Z,1012.04
2023-05-17T05:46:50.571Z,1012.04
2023-05-17T05:47:50.604Z,1012.09
2023-05-17T05:48:50.681Z,1012.03
2023-05-17T05:49:50.564Z,1012.12
2023-05-17T05:50:50.536Z,1012.15
2023-05-17T05:51:50.536Z,1012.07
2023-05-17T05:52:50.506Z,1012.12
2023-05-17T05:53:50.507Z,1012.13
2023-05-17T05:54:50.485Z,1012.05
2023-05-17T05:55:55.496Z,1012.17
2023-05-17T05:56:50.462Z,1012.21
2023-05-17T05:57:50.468Z,1012.12
2023-05-17T05:58:50.451Z,1012.15
2023-05-17T05:59:50.428Z,1012.05
2023-05-17T06:00:50.423Z,1012.06
2023-05-17T06:01:50.403Z,1012.10
2023-05-17T06:02:50.431Z,1012.17
2023-05-17T06:03:50.426Z,1012.17
2023-05-17T06:04:50.482Z,1012.15
2023-05-17T06:05:50.560Z,1012.11
2023-05-17T06:06:55.409Z,1012.14
2023-05-17T06:07:50.346Z,1012.18
2023-05-17T06:08:50.335Z,1012.18
2023-05-17T06:09:50.338Z,1012.27
2023-05-17T06:10:50.307Z,1012.23
2023-05-17T06:11:50.292Z,1012.20
2023-05-17T06:12:50.290Z,1012.21
2023-05-17T06:13:50.279Z,1012.27
2023-05-17T06:14:50.261Z,1012.25
2023-05-17T06:15:50.270Z,1012.32
2023-05-17T06:16:50.237Z,1012.37
2023-05-17T06:17:55.364Z,1012.33
2023-05-17T06:18:51.398Z,1012.41
2023-05-17T06:19:50.306Z,1012.39
2023-05-17T06:20:50.294Z,1012.42
2023-05-17T06:21:50.232Z,1012.33
2023-05-17T06:22:50.176Z,1012.35
2023-05-17T06:23:50.162Z,1012.39
2023-05-17T06:24:50.146Z,1012.35
2023-05-17T06:25:50.134Z,1012.51
2023-05-17T06:26:50.134Z,1012.47
2023-05-17T06:27:50.151Z,1012.47
2023-05-17T06:28:55.124Z,1012.52
2023-05-17T06:29:50.090Z,1012.52
2023-05-17T06:30:50.079Z,1012.50
2023-05-17T06:31:50.077Z,1012.50
2023-05-17T06:32:50.129Z,1012.53
2023-05-17T06:33:50.167Z,1012.54
2023-05-17T06:34:50.029Z,1012.58
2023-05-17T06:35:57.238Z,1012.52
2023-05-17T06:36:51.196Z,1012.57
2023-05-17T06:37:50.017Z,1012.59
2023-05-17T06:38:49.982Z,1012.62
2023-05-17T06:40:00.034Z,1012.61
2023-05-17T06:40:49.965Z,1012.56
2023-05-17T06:41:49.968Z,1012.58
2023-05-17T06:42:49.937Z,1012.62
2023-05-17T06:43:49.925Z,1012.64
2023-05-17T06:44:49.918Z,1012.66
2023-05-17T06:45:49.979Z,1012.57
2023-05-17T06:46:49.901Z,1012.56
2023-05-17T06:47:49.973Z,1012.59
2023-05-17T06:48:51.099Z,1012.68
2023-05-17T06:49:49.873Z,1012.60
2023-05-17T06:50:54.881Z,1012.61
2023-05-17T06:51:49.848Z,1012.64
2023-05-17T06:52:49.913Z,1012.57
2023-05-17T06:53:49.808Z,1012.66
2023-05-17T06:54:49.797Z,1012.62
2023-05-17T06:55:49.800Z,1012.63
2023-05-17T06:56:49.791Z,1012.63
2023-05-17T06:57:49.780Z,1012.60
2023-05-17T06:58:49.753Z,1012.66
2023-05-17T06:59:49.749Z,1012.67
2023-05-17T07:00:49.761Z,1012.64
2023-05-17T07:01:54.744Z,1012.64
2023-05-17T07:02:49.780Z,1012.60
2023-05-17T07:03:49.876Z,1012.60
2023-05-17T07:04:49.787Z,1012.66
2023-05-17T07:05:49.673Z,1012.66
2023-05-17T07:06:49.677Z,1012.65
2023-05-17T07:07:49.653Z,1012.65
2023-05-17T07:08:49.825Z,1012.69
2023-05-17T07:09:49.658Z,1012.69
2023-05-17T07:10:49.618Z,1012.73
2023-05-17T07:11:49.616Z,1012.69
2023-05-17T07:12:54.627Z,1012.68
2023-05-17T07:13:50.673Z,1012.66
2023-05-17T07:14:49.588Z,1012.69
2023-05-17T07:15:49.594Z,1012.78
2023-05-17T07:16:49.563Z,1012.72
2023-05-17T07:17:49.585Z,1012.68
2023-05-17T07:18:49.612Z,1012.76
2023-05-17T07:19:49.713Z,1012.70
2023-05-17T07:20:49.508Z,1012.70
2023-05-17T07:21:49.539Z,1012.66
2023-05-17T07:22:49.489Z,1012.75
2023-05-17T07:23:54.613Z,1012.77
2023-05-17T07:24:49.482Z,1012.81
2023-05-17T07:25:49.466Z,1012.73
2023-05-17T07:26:50.863Z,1012.87
2023-05-17T07:27:49.459Z,1012.74
2023-05-17T07:28:49.589Z,1012.81
2023-05-17T07:29:49.425Z,1012.86
2023-05-17T07:30:49.399Z,1012.81
2023-05-17T07:31:49.388Z,1012.83
2023-05-17T07:32:49.459Z,1012.83
2023-05-17T07:33:49.437Z,1012.80
2023-05-17T07:34:54.376Z,1012.78
2023-05-17T07:35:49.421Z,1012.79
2023-05-17T07:36:49.329Z,1012.70
2023-05-17T07:37:49.350Z,1012.79
2023-05-17T07:38:49.312Z,1012.72
2023-05-17T07:39:49.673Z,1012.69
2023-05-17T07:40:49.294Z,1012.71
2023-05-17T07:41:49.286Z,1012.70
2023-05-17T07:42:49.271Z,1012.78
2023-05-17T07:43:49.250Z,1012.75
2023-05-17T07:44:49.245Z,1012.71
2023-05-17T07:45:54.256Z,1012.77
2023-05-17T07:46:49.274Z,1012.74
2023-05-17T07:47:49.346Z,1012.72
2023-05-17T07:48:49.389Z,1012.78
2023-05-17T07:49:49.181Z,1012.73
2023-05-17T07:50:49.175Z,1012.72
2023-05-17T07:51:49.169Z,1012.78
2023-05-17T07:52:49.168Z,1012.77
2023-05-17T07:53:49.142Z,1012.81
2023-05-17T07:54:49.155Z,1012.79
2023-05-17T07:55:49.145Z,1012.77
2023-05-17T07:56:54.138Z,1012.81
2023-05-17T07:57:49.096Z,1012.82
2023-05-17T07:58:49.109Z,1012.84
2023-05-17T07:59:49.071Z,1012.80
2023-05-17T08:00:49.071Z,1012.74
2023-05-17T08:01:49.055Z,1012.79
2023-05-17T08:02:49.084Z,1012.83
2023-05-17T08:03:49.030Z,1012.81
2023-05-17T08:04:49.061Z,1012.75
2023-05-17T08:05:49.094Z,1012.77
2023-05-17T08:06:49.008Z,1012.73
2023-05-17T08:07:54.001Z,1012.78
2023-05-17T08:08:48.980Z,1012.76
2023-05-17T08:09:48.957Z,1012.81
2023-05-17T08:10:48.976Z,1012.74
2023-05-17T08:11:48.975Z,1012.78
2023-05-17T08:12:48.930Z,1012.82
2023-05-17T08:13:48.920Z,1012.76
2023-05-17T08:14:48.903Z,1012.76
2023-05-17T08:15:51.539Z,1012.82
2023-05-17T08:16:48.897Z,1012.75
2023-05-17T08:17:48.986Z,1012.82
2023-05-17T08:18:54.039Z,1012.75
2023-05-17T08:19:48.877Z,1012.73
2023-05-17T08:20:48.846Z,1012.77
2023-05-17T08:21:48.824Z,1012.71
2023-05-17T08:22:48.827Z,1012.73
2023-05-17T08:23:48.798Z,1012.68
2023-05-17T08:24:48.790Z,1012.71
2023-05-17T08:25:48.805Z,1012.63
2023-05-17T08:26:48.770Z,1012.69
2023-05-17T08:27:48.810Z,1012.69
2023-05-17T08:28:48.752Z,1012.66
2023-05-17T08:29:53.787Z,1012.67
2023-05-17T08:30:49.764Z,1012.70
2023-05-17T08:31:48.714Z,1012.72
2023-05-17T08:32:48.819Z,1012.68
2023-05-17T08:33:48.703Z,1012.75
2023-05-17T08:34:48.691Z,1012.76
2023-05-17T08:35:48.680Z,1012.65
2023-05-17T08:36:48.719Z,1012.69
2023-05-17T08:37:48.643Z,1012.69
2023-05-17T08:38:48.634Z,1012.66
2023-05-17T08:39:48.670Z,1012.64
2023-05-17T08:40:53.639Z,1012.66
2023-05-17T08:41:48.594Z,1012.68
2023-05-17T08:42:48.612Z,1012.62
2023-05-17T08:43:48.635Z,1012.69
2023-05-17T08:44:48.579Z,1012.65
2023-05-17T08:45:48.557Z,1012.66
2023-05-17T08:46:48.559Z,1012.58
2023-05-17T08:47:48.596Z,1012.66
2023-05-17T08:48:48.577Z,1012.63
2023-05-17T08:49:48.526Z,1012.65
2023-05-17T08:50:48.497Z,1012.62
2023-05-17T08:51:53.513Z,1012.62
2023-05-17T08:52:48.493Z,1012.65
2023-05-17T08:53:48.469Z,1012.59
2023-05-17T08:54:48.492Z,1012.63
2023-05-17T08:55:48.438Z,1012.60
2023-05-17T08:56:48.430Z,1012.60
2023-05-17T08:57:48.419Z,1012.62
2023-05-17T08:59:48.424Z,1012.64
2023-05-17T09:00:48.403Z,1012.60
2023-05-17T09:01:48.376Z,1012.65
2023-05-17T09:02:53.430Z,1012.62
2023-05-17T09:03:48.495Z,1012.59
2023-05-17T09:04:48.440Z,1012.52
2023-05-17T09:05:48.381Z,1012.55
2023-05-17T09:06:48.321Z,1012.52
2023-05-17T09:07:48.311Z,1012.60
2023-05-17T09:08:48.305Z,1012.59
2023-05-17T09:09:48.328Z,1012.54
2023-05-17T09:10:48.274Z,1012.49
2023-05-17T09:11:48.269Z,1012.56
2023-05-17T09:12:48.287Z,1012.59
2023-05-17T09:13:53.255Z,1012.61
2023-05-17T09:14:48.220Z,1012.55
2023-05-17T09:15:48.354Z,1012.53
2023-05-17T09:16:48.211Z,1012.55
2023-05-17T09:17:48.284Z,1012.54
2023-05-17T09:18:48.351Z,1012.51
2023-05-17T09:19:48.387Z,1012.57
2023-05-17T09:20:48.154Z,1012.52
2023-05-17T09:21:48.150Z,1012.65
2023-05-17T09:22:48.125Z,1012.57
2023-05-17T09:23:57.703Z,1012.62
2023-05-17T09:24:53.169Z,1012.56
2023-05-17T09:25:48.123Z,1012.51
2023-05-17T09:26:48.092Z,1012.60
2023-05-17T09:27:48.078Z,1012.54
2023-05-17T09:28:48.062Z,1012.51
2023-05-17T09:29:48.051Z,1012.54
2023-05-17T09:30:48.078Z,1012.56
2023-05-17T09:31:48.065Z,1012.54
2023-05-17T09:33:48.105Z,1012.60
2023-05-17T09:34:47.992Z,1012.58
2023-05-17T09:35:53.014Z,1012.63
2023-05-17T09:36:47.999Z,1012.64
2023-05-17T09:37:47.962Z,1012.64
2023-05-17T09:38:47.949Z,1012.66
2023-05-17T09:39:47.949Z,1012.67
2023-05-17T09:40:47.936Z,1012.56
2023-05-17T09:41:48.491Z,1012.59
2023-05-17T09:42:47.939Z,1012.63
2023-05-17T09:43:47.898Z,1012.65
2023-05-17T09:44:47.879Z,1012.69
2023-05-17T09:45:47.883Z,1012.70
2023-05-17T09:46:52.903Z,1012.70
2023-05-17T09:47:47.907Z,1012.73
2023-05-17T09:48:48.000Z,1012.69
2023-05-17T09:49:47.829Z,1012.69
2023-05-17T09:50:47.838Z,1012.68
2023-05-17T09:51:47.819Z,1012.70
2023-05-17T09:52:47.793Z,1012.70
2023-05-17T09:53:47.782Z,1012.76
2023-05-17T09:54:47.802Z,1012.67
2023-05-17T09:55:47.770Z,1012.73
2023-05-17T09:56:47.745Z,1012.77
2023-05-17T09:57:52.753Z,1012.69
2023-05-17T09:58:47.721Z,1012.76
2023-05-17T09:59:47.722Z,1012.71
2023-05-17T10:00:48.911Z,1012.78
2023-05-17T10:01:47.712Z,1012.67
2023-05-17T10:02:47.793Z,1012.74
2023-05-17T10:03:47.686Z,1012.70
2023-05-17T10:04:47.687Z,1012.73
2023-05-17T10:05:47.647Z,1012.76
2023-05-17T10:06:50.752Z,1012.79
2023-05-17T10:07:47.619Z,1012.79
2023-05-17T10:08:52.633Z,1012.74
2023-05-17T10:09:47.607Z,1012.68
2023-05-17T10:10:47.580Z,1012.79
2023-05-17T10:11:47.599Z,1012.70
2023-05-17T10:12:47.590Z,1012.74
2023-05-17T10:13:47.564Z,1012.76
2023-05-17T10:14:47.624Z,1012.80
2023-05-17T10:15:47.539Z,1012.76
2023-05-17T10:16:47.515Z,1012.71
2023-05-17T10:17:47.556Z,1012.72
2023-05-17T10:18:47.583Z,1012.73
2023-05-17T10:19:52.760Z,1012.73
2023-05-17T10:20:47.468Z,1012.64
2023-05-17T10:21:47.456Z,1012.70
2023-05-17T10:22:47.444Z,1012.72
2023-05-17T10:23:47.467Z,1012.67
2023-05-17T10:24:47.436Z,1012.71
2023-05-17T10:25:47.409Z,1012.70
2023-05-17T10:26:47.403Z,1012.72
2023-05-17T10:27:47.394Z,1012.74
2023-05-17T10:28:47.392Z,1012.73
2023-05-17T10:29:49.938Z,1012.74
2023-05-17T10:30:52.379Z,1012.73
2023-05-17T10:31:47.349Z,1012.73
2023-05-17T10:32:47.427Z,1012.66
2023-05-17T10:33:47.433Z,1012.64
2023-05-17T10:34:51.899Z,1012.63
2023-05-17T10:35:48.296Z,1012.75
2023-05-17T10:36:47.335Z,1012.68
2023-05-17T10:37:47.299Z,1012.75
2023-05-17T10:38:47.274Z,1012.72
2023-05-17T10:39:47.260Z,1012.71
2023-05-17T10:40:47.242Z,1012.72
2023-05-17T10:41:53.014Z,1012.60
2023-05-17T10:42:47.279Z,1012.63
2023-05-17T10:43:47.211Z,1012.56
2023-05-17T10:44:47.191Z,1012.61
2023-05-17T10:45:47.175Z,1012.68
2023-05-17T10:46:47.165Z,1012.78
2023-05-17T10:47:47.184Z,1012.98
2023-05-17T10:48:47.221Z,1012.86
2023-05-17T10:49:47.129Z,1012.67
2023-05-17T10:50:54.496Z,1012.70
2023-05-17T10:51:48.132Z,1012.69
2023-05-17T10:52:52.131Z,1012.61
2023-05-17T10:53:47.083Z,1012.59
2023-05-17T10:54:47.088Z,1012.68
2023-05-17T10:55:47.069Z,1012.59
2023-05-17T10:56:47.073Z,1012.58
2023-05-17T10:57:51.330Z,1012.68
2023-05-17T10:58:47.023Z,1012.62
2023-05-17T10:59:47.024Z,1012.61
2023-05-17T11:00:47.051Z,1012.55
2023-05-17T11:01:47.001Z,1012.52
2023-05-17T11:02:46.998Z,1012.56
2023-05-17T11:03:51.990Z,1012.61
2023-05-17T11:04:47.019Z,1012.64
2023-05-17T11:05:48.035Z,1012.71
2023-05-17T11:06:47.049Z,1012.63
2023-05-17T11:07:46.936Z,1012.88
2023-05-17T11:08:46.925Z,1012.65
2023-05-17T11:09:46.901Z,1012.73
2023-05-17T11:10:46.892Z,1012.88
2023-05-17T11:11:46.887Z,1012.78
2023-05-17T11:12:46.917Z,1012.78
2023-05-17T11:13:46.858Z,1012.49
2023-05-17T11:14:51.886Z,1012.64
2023-05-17T11:15:46.847Z,1012.50
2023-05-17T11:16:46.832Z,1012.48
2023-05-17T11:17:46.916Z,1012.47
2023-05-17T11:18:47.001Z,1012.55
2023-05-17T11:19:46.874Z,1012.46
2023-05-17T11:20:46.848Z,1012.57
2023-05-17T11:21:46.767Z,1012.50
2023-05-17T11:22:46.780Z,1012.57
2023-05-17T11:23:46.747Z,1012.55
2023-05-17T11:24:46.785Z,1012.71
2023-05-17T11:25:52.161Z,1012.58
2023-05-17T11:26:46.706Z,1012.51
2023-05-17T11:27:46.721Z,1012.55
2023-05-17T11:28:46.691Z,1012.49
2023-05-17T11:29:46.719Z,1012.57
2023-05-17T11:30:46.734Z,1012.51
2023-05-17T11:31:46.650Z,1012.55
2023-05-17T11:32:46.787Z,1012.57
2023-05-17T11:33:46.785Z,1012.55
2023-05-17T11:34:46.628Z,1012.50
2023-05-17T11:35:46.619Z,1012.44
2023-05-17T11:36:51.661Z,1012.43
2023-05-17T11:37:46.597Z,1012.48
2023-05-17T11:38:48.183Z,1012.52
2023-05-17T11:39:46.576Z,1012.51
2023-05-17T11:40:46.554Z,1012.55
2023-05-17T11:41:46.549Z,1012.54
2023-05-17T11:42:46.573Z,1012.58
2023-05-17T11:43:46.518Z,1012.65
2023-05-17T11:44:46.513Z,1012.87
2023-05-17T11:45:46.495Z,1012.86
2023-05-17T11:46:46.483Z,1012.69
2023-05-17T11:47:51.557Z,1012.82
2023-05-17T11:48:46.593Z,1012.84
2023-05-17T11:49:46.458Z,1012.47
2023-05-17T11:50:46.435Z,1012.44
2023-05-17T11:51:46.441Z,1012.47
2023-05-17T11:52:46.413Z,1012.82
2023-05-17T11:53:46.423Z,1012.49
2023-05-17T11:54:46.419Z,1012.72
2023-05-17T11:55:46.382Z,1012.42
2023-05-17T11:56:46.367Z,1012.40
2023-05-17T11:57:46.363Z,1012.40
2023-05-17T11:58:51.385Z,1012.39
2023-05-17T11:59:46.343Z,1012.31
2023-05-17T12:00:46.338Z,1012.36
2023-05-17T12:01:46.386Z,1012.44
2023-05-17T12:02:46.379Z,1012.28
2023-05-17T12:03:46.304Z,1012.34
2023-05-17T12:04:46.304Z,1012.38
2023-05-17T12:05:46.304Z,1012.28
2023-05-17T12:06:46.462Z,1012.39
2023-05-17T12:07:46.260Z,1012.38
2023-05-17T12:08:46.238Z,1012.29
2023-05-17T12:09:51.293Z,1012.35
2023-05-17T12:10:46.212Z,1012.23
2023-05-17T12:11:46.216Z,1012.34
2023-05-17T12:12:46.256Z,1012.28
2023-05-17T12:13:46.183Z,1012.28
2023-05-17T12:14:46.177Z,1012.34
2023-05-17T12:15:46.155Z,1012.50
2023-05-17T12:16:46.166Z,1012.63
2023-05-17T12:17:46.931Z,1012.30
2023-05-17T12:18:46.331Z,1012.30
2023-05-17T12:19:46.329Z,1012.35
2023-05-17T12:20:51.161Z,1012.56
2023-05-17T12:21:46.092Z,1012.59
2023-05-17T12:22:46.075Z,1012.61
2023-05-17T12:23:46.510Z,1012.51
2023-05-17T12:24:46.105Z,1012.35
2023-05-17T12:25:46.108Z,1012.28
2023-05-17T12:26:46.050Z,1012.20
2023-05-17T12:27:46.019Z,1012.23
2023-05-17T12:28:46.052Z,1012.18
2023-05-17T12:29:45.997Z,1012.24
2023-05-17T12:30:46.067Z,1012.31
2023-05-17T12:31:51.033Z,1012.18
2023-05-17T12:32:46.066Z,1012.24
2023-05-17T12:33:46.025Z,1012.19
2023-05-17T12:34:45.935Z,1012.19
2023-05-17T12:35:45.941Z,1012.21
2023-05-17T12:36:45.974Z,1012.15
2023-05-17T12:37:45.913Z,1012.15
2023-05-17T12:38:45.890Z,1012.19
2023-05-17T12:39:45.884Z,1012.19
2023-05-17T12:40:45.880Z,1012.14
2023-05-17T12:41:45.902Z,1012.17
2023-05-17T12:42:45.848Z,1012.01
2023-05-17T12:43:45.908Z,1012.19
2023-05-17T12:44:50.863Z,1012.18
2023-05-17T12:45:45.833Z,1012.16
2023-05-17T12:46:45.806Z,1012.13
2023-05-17T12:47:45.821Z,1012.04
2023-05-17T12:48:45.816Z,1012.01
2023-05-17T12:49:45.819Z,1012.02
2023-05-17T12:50:45.773Z,1012.02
2023-05-17T12:51:45.801Z,1012.07
2023-05-17T12:52:45.732Z,1012.10
2023-05-17T12:53:45.724Z,1012.12
2023-05-17T12:54:45.718Z,1012.10
2023-05-17T12:55:50.780Z,1012.11
2023-05-17T12:56:45.700Z,1012.17
2023-05-17T12:57:45.712Z,1012.09
2023-05-17T12:58:45.662Z,1012.05
2023-05-17T12:59:45.687Z,1012.16
2023-05-17T13:00:45.646Z,1012.08
2023-05-17T13:01:45.655Z,1012.04
2023-05-17T13:02:45.641Z,1012.09
2023-05-17T13:03:45.811Z,1012.13
2023-05-17T13:04:45.616Z,1012.06
2023-05-17T13:05:45.584Z,1012.09
2023-05-17T13:06:50.597Z,1012.11
2023-05-17T13:07:45.596Z,1012.13
2023-05-17T13:08:45.563Z,1012.02
2023-05-17T13:09:45.555Z,1012.02
2023-05-17T13:10:45.561Z,1012.08
2023-05-17T13:11:45.523Z,1012.01
2023-05-17T13:12:45.511Z,1011.96
2023-05-17T13:13:45.539Z,1011.95
2023-05-17T13:14:47.027Z,1011.99
2023-05-17T13:15:45.490Z,1011.96
2023-05-17T13:16:45.485Z,1011.94
2023-05-17T13:17:50.541Z,1011.92
2023-05-17T13:18:45.585Z,1011.91
2023-05-17T13:19:45.546Z,1011.97
2023-05-17T13:20:45.417Z,1011.93
2023-05-17T13:21:45.414Z,1011.87
2023-05-17T13:22:45.405Z,1011.92
2023-05-17T13:23:45.398Z,1011.94
2023-05-17T13:24:45.411Z,1011.91
2023-05-17T13:25:45.375Z,1011.90
2023-05-17T13:26:45.358Z,1011.83
2023-05-17T13:27:45.359Z,1011.81
2023-05-17T13:28:50.455Z,1011.85
2023-05-17T13:29:45.336Z,1011.88
2023-05-17T13:30:45.305Z,1011.81
2023-05-17T13:31:45.318Z,1011.85
2023-05-17T13:32:45.421Z,1011.77
2023-05-17T13:33:45.448Z,1011.78
2023-05-17T13:34:45.260Z,1011.75
2023-05-17T13:35:45.250Z,1011.78
2023-05-17T13:36:45.333Z,1011.70
2023-05-17T13:37:45.238Z,1011.70
2023-05-17T13:38:45.217Z,1011.74
2023-05-17T13:39:50.230Z,1011.70
2023-05-17T13:40:45.193Z,1011.65
2023-05-17T13:41:45.193Z,1011.69
2023-05-17T13:42:45.217Z,1011.66
2023-05-17T13:43:45.159Z,1011.62
2023-05-17T13:44:45.286Z,1011.65
2023-05-17T13:45:45.137Z,1011.55
2023-05-17T13:46:45.138Z,1011.55
2023-05-17T13:47:45.173Z,1011.65
2023-05-17T13:48:45.201Z,1011.59
2023-05-17T13:49:45.114Z,1011.63
2023-05-17T13:50:50.125Z,1011.66
2023-05-17T13:51:45.123Z,1011.59
2023-05-17T13:52:45.062Z,1011.58
2023-05-17T13:53:45.053Z,1011.55
2023-05-17T13:54:45.110Z,1011.49
2023-05-17T13:55:45.083Z,1011.45
2023-05-17T13:56:45.037Z,1011.49
2023-05-17T13:57:44.995Z,1011.43
2023-05-17T13:58:45.003Z,1011.46
2023-05-17T13:59:45.911Z,1011.43
2023-05-17T14:00:45.034Z,1011.54
2023-05-17T14:01:50.026Z,1011.42
2023-05-17T14:02:44.971Z,1011.48
2023-05-17T14:03:45.023Z,1011.48
2023-05-17T14:04:44.931Z,1011.53
2023-05-17T14:05:44.939Z,1011.45
2023-05-17T14:06:47.175Z,1011.38
2023-05-17T14:07:44.900Z,1011.47
2023-05-17T14:08:44.880Z,1011.47
2023-05-17T14:09:44.891Z,1011.45
2023-05-17T14:10:44.864Z,1011.44
2023-05-17T14:11:44.842Z,1011.46
2023-05-17T14:12:49.867Z,1011.54
2023-05-17T14:13:44.816Z,1011.50
2023-05-17T14:14:44.819Z,1011.45
2023-05-17T14:15:44.813Z,1011.50
2023-05-17T14:16:44.836Z,1011.53
2023-05-17T14:17:44.958Z,1011.47
2023-05-17T14:18:44.921Z,1011.53
2023-05-17T14:19:44.916Z,1011.39
2023-05-17T14:20:44.749Z,1011.39
2023-05-17T14:21:44.725Z,1011.39
2023-05-17T14:22:44.713Z,1011.40
2023-05-17T14:23:49.729Z,1011.40
2023-05-17T14:24:44.749Z,1011.42
2023-05-17T14:25:44.698Z,1011.41
2023-05-17T14:26:44.671Z,1011.40
2023-05-17T14:27:44.661Z,1011.42
2023-05-17T14:28:44.652Z,1011.37
2023-05-17T14:29:44.665Z,1011.41
2023-05-17T14:30:44.665Z,1011.35
2023-05-17T14:31:44.610Z,1011.38
2023-05-17T14:32:44.677Z,1011.38
2023-05-17T14:33:44.677Z,1011.35
2023-05-17T14:34:49.610Z,1011.39
2023-05-17T14:35:44.572Z,1011.38
2023-05-17T14:36:44.606Z,1011.39
2023-05-17T14:37:44.548Z,1011.30
2023-05-17T14:38:44.547Z,1011.34
2023-05-17T14:39:58.493Z,1011.34
2023-05-17T14:40:44.520Z,1011.35
2023-05-17T14:41:45.144Z,1011.32
2023-05-17T14:42:44.525Z,1011.35
2023-05-17T14:43:44.491Z,1011.36
2023-05-17T14:44:44.465Z,1011.45
2023-05-17T14:45:49.483Z,1011.32
2023-05-17T14:46:44.460Z,1011.35
2023-05-17T14:47:44.475Z,1011.41
2023-05-17T14:48:44.543Z,1011.32
2023-05-17T14:49:44.407Z,1011.39
2023-05-17T14:50:44.406Z,1011.39
2023-05-17T14:51:44.383Z,1011.37
2023-05-17T14:52:44.386Z,1011.34
2023-05-17T14:53:44.374Z,1011.40
2023-05-17T14:54:44.353Z,1011.40
2023-05-17T14:55:44.371Z,1011.37
2023-05-17T14:56:49.356Z,1011.36
2023-05-17T14:57:44.322Z,1011.38
2023-05-17T14:58:44.304Z,1011.31
2023-05-17T14:59:45.198Z,1011.36
2023-05-17T15:00:44.280Z,1011.31
2023-05-17T15:01:44.307Z,1011.26
2023-05-17T15:02:44.313Z,1011.23
2023-05-17T15:03:44.384Z,1011.22
2023-05-17T15:04:44.335Z,1011.29
2023-05-17T15:05:44.230Z,1011.29
2023-05-17T15:06:44.225Z,1011.28
2023-05-17T15:07:49.274Z,1011.23
2023-05-17T15:08:44.189Z,1011.26
2023-05-17T15:09:44.196Z,1011.28
2023-05-17T15:10:44.171Z,1011.31
2023-05-17T15:11:44.168Z,1011.35
2023-05-17T15:12:44.147Z,1011.32
2023-05-17T15:13:44.181Z,1011.26
2023-05-17T15:14:44.124Z,1011.30
2023-05-17T15:15:44.117Z,1011.30
2023-05-17T15:16:44.157Z,1011.29
2023-05-17T15:17:44.130Z,1011.25
2023-05-17T15:18:49.230Z,1011.27
2023-05-17T15:19:44.325Z,1011.22
2023-05-17T15:20:44.083Z,1011.19
2023-05-17T15:21:44.049Z,1011.12
2023-05-17T15:22:44.045Z,1011.22
2023-05-17T15:23:44.020Z,1011.25
2023-05-17T15:24:44.015Z,1011.21
2023-05-17T15:25:44.019Z,1011.16
2023-05-17T15:26:43.989Z,1011.17
2023-05-17T15:27:43.983Z,1011.21
2023-05-17T15:28:43.971Z,1011.25
2023-05-17T15:29:48.980Z,1011.23
2023-05-17T15:30:43.958Z,1011.25
2023-05-17T15:31:44.046Z,1011.22
2023-05-17T15:32:43.942Z,1011.16
2023-05-17T15:33:43.925Z,1011.21
2023-05-17T15:34:43.913Z,1011.21
2023-05-17T15:35:43.913Z,1011.16
2023-05-17T15:36:43.906Z,1011.21
2023-05-17T15:37:43.908Z,1011.21
2023-05-17T15:38:43.853Z,1011.12
2023-05-17T15:39:43.852Z,1011.17
2023-05-17T15:40:48.856Z,1011.12
2023-05-17T15:41:43.819Z,1011.11
2023-05-17T15:42:43.810Z,1011.07
2023-05-17T15:43:43.837Z,1011.10
2023-05-17T15:44:43.793Z,1011.11
2023-05-17T15:45:43.771Z,1011.17
2023-05-17T15:46:43.766Z,1011.21
2023-05-17T15:47:44.070Z,1011.20
2023-05-17T15:48:43.849Z,1011.22
2023-05-17T15:49:43.768Z,1011.17
2023-05-17T15:50:43.718Z,1011.17
2023-05-17T15:51:48.766Z,1011.20
2023-05-17T15:52:43.705Z,1011.21
2023-05-17T15:53:43.695Z,1011.18
2023-05-17T15:54:43.686Z,1011.16
2023-05-17T15:55:43.686Z,1011.16
2023-05-17T15:56:43.649Z,1011.16
2023-05-17T15:57:43.635Z,1011.16
2023-05-17T15:58:43.636Z,1011.13
2023-05-17T15:59:43.612Z,1011.13
2023-05-17T16:00:43.602Z,1011.13
2023-05-17T16:01:43.623Z,1011.14
2023-05-17T16:02:48.637Z,1011.10
2023-05-17T16:03:43.620Z,1011.11
2023-05-17T16:04:43.558Z,1011.20
2023-05-17T16:05:43.581Z,1011.15
2023-05-17T16:06:43.624Z,1011.06
2023-05-17T16:07:43.578Z,1011.08
2023-05-17T16:08:43.527Z,1011.10
2023-05-17T16:09:43.501Z,1011.15
2023-05-17T16:10:43.501Z,1011.17
2023-05-17T16:11:43.474Z,1011.12
2023-05-17T16:12:43.474Z,1011.16
2023-05-17T16:13:48.496Z,1011.11
2023-05-17T16:14:43.442Z,1011.15
2023-05-17T16:15:43.430Z,1011.16
2023-05-17T16:16:45.082Z,1011.16
2023-05-17T16:17:43.508Z,1011.19
2023-05-17T16:18:43.517Z,1011.19
2023-05-17T16:19:43.439Z,1011.20
2023-05-17T16:20:43.385Z,1011.18
2023-05-17T16:21:43.369Z,1011.23
2023-05-17T16:22:43.363Z,1011.19
2023-05-17T16:23:43.414Z,1011.21
2023-05-17T16:24:48.372Z,1011.20
2023-05-17T16:25:43.330Z,1011.24
2023-05-17T16:26:43.326Z,1011.20
2023-05-17T16:27:43.340Z,1011.27
2023-05-17T16:28:43.289Z,1011.23
2023-05-17T16:29:43.277Z,1011.26
2023-05-17T16:30:43.339Z,1011.12
2023-05-17T16:31:43.261Z,1011.17
2023-05-17T16:32:43.267Z,1011.26
2023-05-17T16:33:43.273Z,1011.30
2023-05-17T16:34:43.223Z,1011.24
2023-05-17T16:35:48.256Z,1011.22
2023-05-17T16:36:43.204Z,1011.28
2023-05-17T16:37:43.181Z,1011.31
2023-05-17T16:38:43.173Z,1011.31
2023-05-17T16:39:43.189Z,1011.36
2023-05-17T16:40:43.163Z,1011.35
2023-05-17T16:41:43.187Z,1011.43
2023-05-17T16:42:43.125Z,1011.36
2023-05-17T16:43:43.112Z,1011.36
2023-05-17T16:44:43.103Z,1011.30
2023-05-17T16:45:43.114Z,1011.35
2023-05-17T16:46:48.182Z,1011.32
2023-05-17T16:47:43.279Z,1011.28
2023-05-17T16:48:43.156Z,1011.29
2023-05-17T16:49:43.047Z,1011.25
2023-05-17T16:50:43.047Z,1011.19
2023-05-17T16:51:43.027Z,1011.24
2023-05-17T16:52:43.018Z,1011.24
2023-05-17T16:53:43.006Z,1011.35
2023-05-17T16:54:43.020Z,1011.43
2023-05-17T16:55:43.011Z,1011.33
2023-05-17T16:56:42.974Z,1011.31
2023-05-17T16:57:47.998Z,1011.30
2023-05-17T16:58:42.961Z,1011.36
2023-05-17T16:59:42.931Z,1011.33
2023-05-17T17:00:42.953Z,1011.33
2023-05-17T17:01:42.987Z,1011.33
2023-05-17T17:02:42.930Z,1011.25
2023-05-17T17:03:43.271Z,1011.36
2023-05-17T17:04:42.897Z,1011.34
2023-05-17T17:05:42.894Z,1011.31
2023-05-17T17:06:42.878Z,1011.34
2023-05-17T17:07:42.842Z,1011.32